Time;durP1;ratioP1;P1;durP2;ratioP2;P2;SDS_P1;SDS_P2;PMS_P1;PMS_P2;Temp;Humidity;BMP_temperature;BMP_pressure;BME280_temperature;BME280_humidity;BME280_pressure;Samples;Min_cycle;Max_cycle;Signal;HPM_P1;HPM_P2
2022/07/12 00:01:52;;;;;;;7.85;2.22;;;23.30;91.80;;;;;;5121277;27;20031;-72
2022/07/12 00:04:18;;;;;;;6.63;1.98;;;23.30;91.80;;;;;;5123275;27;20880;-72
2022/07/12 00:06:45;;;;;;;4.03;1.38;;;23.30;91.80;;;;;;5124556;27;20715;-72
2022/07/12 00:09:10;;;;;;;2.88;1.95;;;23.30;91.80;;;;;;5106571;27;20063;-72
2022/07/12 00:11:36;;;;;;;2.55;1.60;;;23.30;91.90;;;;;;5123031;27;20039;-72
2022/07/12 00:14:03;;;;;;;3.03;1.30;;;23.20;91.80;;;;;;5119688;27;20557;-72
2022/07/12 00:16:29;;;;;;;3.95;1.65;;;23.20;91.80;;;;;;5123135;27;20168;-73
2022/07/12 00:18:54;;;;;;;4.10;2.08;;;23.20;91.90;;;;;;5121240;27;20043;-72
2022/07/12 00:21:20;;;;;;;2.97;1.58;;;23.20;91.80;;;;;;5122625;27;20041;-72
2022/07/12 00:23:46;;;;;;;4.28;1.23;;;23.20;91.80;;;;;;5125145;27;20039;-72
2022/07/12 00:26:12;;;;;;;3.53;1.50;;;23.10;91.80;;;;;;5123829;27;20149;-72
2022/07/12 00:28:38;;;;;;;2.72;1.40;;;23.10;91.80;;;;;;5122334;27;20100;-72
2022/07/12 00:31:03;;;;;;;2.53;1.40;;;23.10;92.10;;;;;;5122050;27;20619;-72
2022/07/12 00:33:29;;;;;;;3.17;1.77;;;23.10;91.80;;;;;;5122549;27;21144;-73
2022/07/12 00:35:55;;;;;;;3.75;1.63;;;23.10;91.90;;;;;;5124110;27;20050;-73
2022/07/12 00:38:21;;;;;;;2.15;1.23;;;23.10;91.90;;;;;;5123248;27;20032;-73
2022/07/12 00:40:47;;;;;;;4.47;1.85;;;23.10;91.80;;;;;;5123777;27;20050;-73
2022/07/12 00:43:13;;;;;;;3.58;1.42;;;23.10;91.80;;;;;;5121190;27;20046;-73
2022/07/12 00:45:39;;;;;;;3.08;1.58;;;23.00;91.80;;;;;;5123934;27;20050;-73
2022/07/12 00:48:05;;;;;;;1.40;1.20;;;23.00;91.80;;;;;;5122428;27;20528;-73
2022/07/12 00:50:31;;;;;;;3.13;1.38;;;23.00;91.80;;;;;;5121317;27;20082;-73
2022/07/12 00:52:58;;;;;;;2.47;1.23;;;23.00;91.80;;;;;;5123663;27;20509;-73
2022/07/12 00:55:24;;;;;;;4.68;2.13;;;22.90;91.80;;;;;;5126724;27;20566;-73
2022/07/12 00:57:50;;;;;;;2.67;1.52;;;22.90;91.80;;;;;;5126923;27;20529;-73
2022/07/12 01:00:27;;;;;;;1.80;1.10;;;22.90;91.90;;;;;;5125792;27;20027;-73
2022/07/12 01:02:55;;;;;;;1.85;1.30;;;22.80;91.90;;;;;;5125776;27;20075;-73
2022/07/12 01:05:21;;;;;;;3.47;1.48;;;22.80;91.90;;;;;;5126408;27;20077;-73
2022/07/12 01:07:48;;;;;;;1.83;1.25;;;22.80;91.90;;;;;;5125945;27;20043;-73
2022/07/12 01:10:14;;;;;;;3.50;1.35;;;22.80;91.90;;;;;;5128234;27;20545;-73
2022/07/12 01:12:40;;;;;;;5.15;1.98;;;22.80;92.00;;;;;;5125447;27;20050;-73
2022/07/12 01:15:07;;;;;;;2.25;1.30;;;22.80;92.00;;;;;;5125164;27;20035;-73
2022/07/12 01:17:33;;;;;;;3.85;1.40;;;22.70;92.00;;;;;;5125302;27;20077;-73
2022/07/12 01:19:59;;;;;;;1.63;1.00;;;22.70;92.10;;;;;;5124843;27;20050;-73
2022/07/12 01:22:33;;;;;;;2.65;1.33;;;22.70;92.10;;;;;;5125555;27;20042;-73
2022/07/12 01:25:01;;;;;;;2.25;1.23;;;22.70;92.20;;;;;;5126528;27;20044;-73
2022/07/12 01:27:27;;;;;;;3.10;1.60;;;22.70;92.20;;;;;;5126554;27;20043;-73
2022/07/12 01:29:54;;;;;;;2.10;1.70;;;22.60;92.20;;;;;;5125325;27;20043;-73
2022/07/12 01:32:25;;;;;;;2.85;1.58;;;22.60;92.30;;;;;;5126328;27;20069;-73
2022/07/12 01:34:53;;;;;;;;;;;22.60;92.30;;;;;;5126310;27;20100;-73
2022/07/12 01:37:20;;;;;;;4.10;1.25;;;22.50;92.30;;;;;;5125868;27;20066;-73
2022/07/12 01:39:49;;;;;;;2.38;1.65;;;22.50;92.40;;;;;;5124537;27;20067;-73
2022/07/12 01:42:15;;;;;;;1.65;1.13;;;22.50;92.40;;;;;;5126481;27;20166;-73
2022/07/12 01:44:41;;;;;;;1.75;1.23;;;22.50;92.50;;;;;;5123621;27;20039;-73
2022/07/12 01:47:07;;;;;;;2.97;1.20;;;22.40;92.50;;;;;;5125980;27;21542;-73
2022/07/12 01:49:32;;;;;;;1.38;1.10;;;22.40;92.60;;;;;;5124516;27;20894;-73
2022/07/12 01:51:58;;;;;;;3.17;1.10;;;22.40;92.70;;;;;;5124380;27;20043;-73
2022/07/12 01:54:25;;;;;;;3.30;1.27;;;22.40;92.70;;;;;;5125419;27;20509;-73
2022/07/12 01:56:54;;;;;;;3.08;1.58;;;22.40;92.70;;;;;;5125404;27;20032;-73
2022/07/12 01:59:21;;;;;;;2.05;1.17;;;22.40;93.10;;;;;;5124682;27;20679;-73
2022/07/12 02:01:48;;;;;;;8.40;1.40;;;22.30;92.80;;;;;;5126927;27;20447;-73
2022/07/12 02:04:17;;;;;;;1.80;1.15;;;22.40;92.90;;;;;;5124381;27;20047;-73
2022/07/12 02:06:47;;;;;;;2.58;1.10;;;22.30;92.90;;;;;;5125168;27;20085;-73
2022/07/12 02:09:14;;;;;;;3.00;1.40;;;22.30;93.00;;;;;;5124433;27;20043;-73
2022/07/12 02:11:41;;;;;;;1.30;1.20;;;22.30;93.00;;;;;;5123820;27;20850;-73
2022/07/12 02:14:09;;;;;;;2.15;1.40;;;22.30;93.10;;;;;;5120496;27;20059;-73
2022/07/12 02:16:35;;;;;;;2.30;1.30;;;22.30;93.10;;;;;;5126489;27;20523;-73
2022/07/12 02:19:01;;;;;;;2.60;1.40;;;22.20;93.10;;;;;;5126657;27;20070;-73
2022/07/12 02:21:27;;;;;;;2.53;1.50;;;22.20;93.10;;;;;;5125160;27;20039;-73
2022/07/12 02:23:53;;;;;;;5.38;1.98;;;22.20;93.20;;;;;;5108921;27;20048;-74
2022/07/12 02:26:19;;;;;;;1.35;1.08;;;22.20;93.30;;;;;;5124277;27;20124;-73
2022/07/12 02:28:45;;;;;;;3.90;1.40;;;22.20;93.40;;;;;;5126661;27;20501;-73
2022/07/12 02:31:11;;;;;;;3.30;1.73;;;22.20;93.50;;;;;;5123163;27;20074;-73
2022/07/12 02:33:37;;;;;;;2.28;1.38;;;22.20;93.50;;;;;;5141903;27;20040;-73
2022/07/12 02:36:03;;;;;;;4.93;1.40;;;22.20;93.50;;;;;;5124469;27;20048;-73
2022/07/12 02:38:29;;;;;;;2.60;1.40;;;22.10;93.80;;;;;;5124403;27;20176;-73
2022/07/12 02:40:55;;;;;;;4.75;1.70;;;22.10;93.60;;;;;;5126960;27;20093;-74
2022/07/12 02:43:29;;;;;;;2.60;1.40;;;22.10;93.70;;;;;;5140617;27;20134;-74
2022/07/12 02:46:22;;;;;;;2.25;1.75;;;22.10;93.70;;;;;;5125401;27;20047;-73
2022/07/12 02:48:48;;;;;;;2.30;1.27;;;22.10;93.70;;;;;;5122330;27;20139;-73
2022/07/12 02:51:16;;;;;;;9.35;3.05;;;22.10;93.70;;;;;;5125074;27;20043;-73
2022/07/12 02:53:42;;;;;;;4.35;1.95;;;22.00;93.70;;;;;;5125253;27;20039;-73
2022/07/12 02:56:09;;;;;;;4.15;1.55;;;22.00;93.70;;;;;;5125917;27;20051;-73
2022/07/12 02:58:36;;;;;;;4.15;1.50;;;22.00;93.80;;;;;;5122113;27;20398;-73
2022/07/12 03:01:02;;;;;;;3.50;1.55;;;22.00;93.80;;;;;;5124867;27;20823;-73
2022/07/12 03:03:28;;;;;;;2.80;1.40;;;22.00;93.80;;;;;;5109700;27;20139;-73
2022/07/12 03:05:54;;;;;;;2.40;1.50;;;22.00;93.90;;;;;;5125784;27;20128;-74
2022/07/12 03:08:20;;;;;;;3.10;1.70;;;21.90;93.90;;;;;;5106512;27;20047;-73
2022/07/12 03:10:45;;;;;;;4.53;2.63;;;22.00;94.00;;;;;;5125220;27;20044;-73
2022/07/12 03:13:11;;;;;;;2.97;1.83;;;22.00;94.00;;;;;;5123633;27;20502;-73
2022/07/12 03:15:37;;;;;;;2.97;2.13;;;21.90;94.00;;;;;;5123717;27;20504;-73
2022/07/12 03:18:03;;;;;;;1.65;1.42;;;21.90;94.00;;;;;;5125612;27;20521;-74
2022/07/12 03:20:30;;;;;;;2.63;1.42;;;21.90;94.10;;;;;;5123990;27;20067;-73
2022/07/12 03:22:56;;;;;;;3.70;1.95;;;21.90;94.10;;;;;;5125536;27;20046;-74
2022/07/12 03:25:22;;;;;;;4.07;1.42;;;21.80;94.10;;;;;;5125487;27;21157;-74
2022/07/12 03:27:48;;;;;;;2.38;1.42;;;21.80;94.10;;;;;;5121741;27;20047;-73
2022/07/12 03:30:14;;;;;;;5.45;1.95;;;21.80;94.20;;;;;;5124343;27;20051;-73
2022/07/12 03:32:40;;;;;;;7.93;1.85;;;21.80;94.20;;;;;;5122861;27;20043;-73
2022/07/12 03:35:07;;;;;;;5.90;2.35;;;21.70;94.20;;;;;;5123291;27;20052;-73
2022/07/12 03:37:50;;;;;;;4.18;2.20;;;21.70;94.30;;;;;;5122720;27;20036;-72
2022/07/12 03:40:17;;;;;;;2.78;2.00;;;21.70;94.40;;;;;;5124888;27;20116;-72
2022/07/12 03:42:44;;;;;;;4.35;1.85;;;21.70;94.40;;;;;;5125061;27;20531;-76
2022/07/12 03:45:11;;;;;;;4.85;1.60;;;21.60;94.40;;;;;;5124737;27;20046;-75
2022/07/12 03:47:37;;;;;;;3.90;1.80;;;21.60;94.50;;;;;;5106872;27;20039;-73
2022/07/12 03:50:05;;;;;;;2.65;1.80;;;21.60;94.50;;;;;;5122968;27;20526;-73
2022/07/12 03:52:34;;;;;;;5.60;1.60;;;21.50;94.60;;;;;;5124607;27;20035;-73
2022/07/12 03:55:03;;;;;;;6.22;2.45;;;21.50;94.60;;;;;;5121166;27;20039;-74
2022/07/12 03:57:30;;;;;;;5.50;1.38;;;21.50;94.70;;;;;;5123564;27;20035;-73
2022/07/12 03:59:56;;;;;;;4.18;1.80;;;21.50;94.70;;;;;;5122155;27;20079;-73
2022/07/12 04:02:22;;;;;;;3.13;1.67;;;21.50;94.80;;;;;;5124318;27;20128;-74
2022/07/12 04:04:49;;;;;;;7.88;1.83;;;21.50;94.80;;;;;;5124766;27;20046;-73
2022/07/12 04:07:14;;;;;;;2.92;1.67;;;21.40;94.80;;;;;;5122068;27;20092;-74
2022/07/12 04:09:40;;;;;;;2.70;1.73;;;21.40;94.80;;;;;;5124141;27;20100;-74
2022/07/12 04:12:06;;;;;;;4.32;1.67;;;21.40;94.90;;;;;;5121567;27;20047;-73
2022/07/12 04:14:32;;;;;;;3.88;1.58;;;21.40;94.90;;;;;;5123783;27;20124;-73
2022/07/12 04:16:58;;;;;;;4.05;2.15;;;21.40;94.90;;;;;;5122554;27;20041;-73
2022/07/12 04:19:27;;;;;;;2.17;1.45;;;21.40;95.00;;;;;;5123836;27;20050;-74
2022/07/12 04:21:56;;;;;;;4.57;2.17;;;21.30;95.00;;;;;;5124813;27;20039;-73
2022/07/12 04:24:22;;;;;;;3.72;1.80;;;21.40;95.10;;;;;;5123004;27;20328;-73
2022/07/12 04:26:48;;;;;;;4.80;1.80;;;21.30;95.10;;;;;;5122924;27;20039;-73
2022/07/12 04:29:15;;;;;;;6.68;2.08;;;21.30;95.10;;;;;;5123519;27;20139;-73
2022/07/12 04:31:41;;;;;;;6.47;2.50;;;21.30;95.10;;;;;;5121789;27;20566;-73
2022/07/12 04:34:07;;;;;;;3.13;1.80;;;21.30;95.10;;;;;;5122110;27;20126;-73
2022/07/12 04:36:34;;;;;;;7.45;1.80;;;21.20;95.20;;;;;;5123027;27;20046;-73
2022/07/12 04:38:59;;;;;;;6.60;2.20;;;21.20;95.20;;;;;;5122599;27;20044;-73
2022/07/12 04:41:25;;;;;;;3.90;2.08;;;21.30;95.30;;;;;;5122765;27;20040;-73
2022/07/12 04:43:51;;;;;;;5.40;2.53;;;21.20;95.30;;;;;;5123845;27;20614;-74
2022/07/12 04:46:16;;;;;;;6.20;2.17;;;21.20;95.30;;;;;;5120711;27;20172;-73
2022/07/12 04:48:42;;;;;;;9.57;2.08;;;21.20;95.30;;;;;;5123148;27;20043;-74
2022/07/12 04:51:08;;;;;;;5.88;1.50;;;21.30;95.40;;;;;;5123778;27;20645;-73
2022/07/12 04:53:34;;;;;;;6.00;1.48;;;21.20;95.30;;;;;;5122671;27;20040;-74
2022/07/12 04:55:59;;;;;;;5.88;2.10;;;21.20;95.40;;;;;;5123440;27;20043;-73
2022/07/12 04:58:25;;;;;;;3.90;1.90;;;21.20;95.40;;;;;;5120136;27;20039;-73
2022/07/12 05:00:51;;;;;;;2.60;1.55;;;21.20;95.50;;;;;;5123822;27;20470;-74
2022/07/12 05:03:17;;;;;;;3.85;1.80;;;21.20;95.60;;;;;;5123836;27;20440;-73
2022/07/12 05:05:43;;;;;;;2.53;1.48;;;21.20;95.60;;;;;;5124071;27;20106;-73
2022/07/12 05:08:09;;;;;;;4.38;1.65;;;21.20;95.60;;;;;;5121659;27;20564;-74
2022/07/12 05:10:35;;;;;;;6.22;2.00;;;21.20;95.70;;;;;;5120786;27;20480;-73
2022/07/12 05:13:01;;;;;;;3.70;1.63;;;21.20;95.70;;;;;;5122564;27;20039;-73
2022/07/12 05:15:27;;;;;;;9.02;1.80;;;21.20;95.70;;;;;;5121810;27;21008;-73
2022/07/12 05:17:53;;;;;;;4.45;1.70;;;21.20;95.80;;;;;;5123211;27;20540;-74
2022/07/12 05:20:19;;;;;;;5.82;2.15;;;21.20;95.80;;;;;;5120945;27;20040;-74
2022/07/12 05:22:44;;;;;;;4.72;1.80;;;21.20;95.90;;;;;;5121876;27;20035;-74
2022/07/12 05:25:10;;;;;;;4.32;1.80;;;21.20;95.90;;;;;;5122692;27;20501;-74
2022/07/12 05:27:36;;;;;;;5.15;2.22;;;21.20;96.00;;;;;;5121903;27;20064;-74
2022/07/12 05:30:06;;;;;;;3.67;1.73;;;21.20;96.10;;;;;;5123490;27;20047;-73
2022/07/12 05:32:32;;;;;;;4.00;1.73;;;21.30;96.10;;;;;;5123279;27;20122;-74
2022/07/12 05:34:57;;;;;;;4.85;1.48;;;21.30;96.20;;;;;;5122435;27;20050;-74
2022/07/12 05:37:25;;;;;;;2.53;1.42;;;21.20;96.20;;;;;;5124316;27;20140;-74
2022/07/12 05:39:51;;;;;;;2.67;1.70;;;21.30;96.30;;;;;;5125187;27;20047;-73
2022/07/12 05:42:17;;;;;;;4.95;1.85;;;21.30;96.30;;;;;;5126272;27;20529;-73
2022/07/12 05:44:42;;;;;;;2.90;1.75;;;21.20;96.40;;;;;;5123019;27;20050;-73
2022/07/12 05:47:08;;;;;;;2.25;1.45;;;21.20;96.40;;;;;;5123822;27;20191;-73
2022/07/12 05:49:34;;;;;;;3.28;1.88;;;21.30;96.50;;;;;;5127229;27;20050;-73
2022/07/12 05:54:44;;;;;;;3.42;1.35;;;21.20;96.60;;;;;;5126827;27;20040;-73
2022/07/12 05:57:11;;;;;;;1.88;1.35;;;21.30;96.70;;;;;;5124530;27;20048;-73
2022/07/12 05:59:36;;;;;;;2.08;1.30;;;21.30;96.80;;;;;;5124031;27;20055;-73
2022/07/12 06:02:03;;;;;;;2.67;1.55;;;21.20;96.80;;;;;;5123861;27;20390;-73
2022/07/12 06:04:29;;;;;;;7.45;1.85;;;21.30;96.90;;;;;;5108788;27;20039;-73
2022/07/12 06:06:56;;;;;;;6.47;1.70;;;21.30;96.90;;;;;;5124749;27;20449;-73
2022/07/12 06:09:22;;;;;;;2.83;1.50;;;21.30;97.00;;;;;;5126018;27;20051;-73
2022/07/12 06:11:47;;;;;;;3.58;1.65;;;21.30;97.00;;;;;;5126584;27;20088;-73
2022/07/12 06:14:13;;;;;;;5.60;2.03;;;21.30;97.10;;;;;;5125019;27;20139;-73
2022/07/12 06:16:39;;;;;;;5.90;1.60;;;21.40;97.20;;;;;;5125492;27;20173;-73
2022/07/12 06:19:04;;;;;;;5.10;1.55;;;21.40;97.30;;;;;;5122271;27;20164;-73
2022/07/12 06:21:30;;;;;;;2.42;1.55;;;21.40;97.30;;;;;;5125875;27;20042;-73
2022/07/12 06:23:56;;;;;;;1.67;1.30;;;21.50;97.40;;;;;;5126981;27;20096;-73
2022/07/12 06:26:22;;;;;;;4.47;1.55;;;21.50;97.50;;;;;;5123679;27;20048;-73
2022/07/12 06:28:48;;;;;;;3.88;1.90;;;21.50;97.50;;;;;;5123701;27;20076;-73
2022/07/12 06:31:13;;;;;;;6.05;1.98;;;21.50;97.60;;;;;;5124624;27;20112;-73
2022/07/12 06:33:39;;;;;;;6.75;1.92;;;21.60;97.60;;;;;;5125338;27;20108;-74
2022/07/12 06:36:05;;;;;;;7.20;2.47;;;21.50;97.60;;;;;;5123704;27;20050;-73
2022/07/12 06:38:31;;;;;;;7.88;2.55;;;21.60;97.70;;;;;;5125601;27;20612;-73
2022/07/12 06:40:57;;;;;;;5.38;1.58;;;21.60;97.80;;;;;;5125983;27;20031;-73
2022/07/12 06:43:22;;;;;;;5.70;1.85;;;21.60;97.80;;;;;;5122981;27;20039;-72
2022/07/12 06:45:48;;;;;;;2.53;1.30;;;21.60;97.90;;;;;;5124596;27;20040;-73
2022/07/12 06:48:14;;;;;;;5.55;2.13;;;21.70;97.90;;;;;;5123633;27;20039;-73
2022/07/12 06:50:39;;;;;;;6.03;1.90;;;21.70;97.90;;;;;;5123035;27;20600;-73
2022/07/12 06:53:05;;;;;;;5.22;1.77;;;21.70;98.00;;;;;;5123067;27;20130;-75
2022/07/12 06:55:31;;;;;;;5.47;1.90;;;21.70;98.00;;;;;;5126149;27;20127;-75
2022/07/12 06:57:57;;;;;;;8.80;2.10;;;21.70;98.00;;;;;;5124772;27;20140;-75
2022/07/12 07:00:23;;;;;;;4.85;2.45;;;21.70;98.10;;;;;;5122848;27;20936;-74
2022/07/12 07:02:48;;;;;;;4.53;1.88;;;21.70;98.10;;;;;;5123801;27;20413;-73
2022/07/12 07:05:15;;;;;;;7.78;2.92;;;21.80;98.20;;;;;;5126505;27;20044;-73
2022/07/12 07:07:41;;;;;;;3.22;1.52;;;21.80;98.10;;;;;;5123457;27;20712;-74
2022/07/12 07:10:07;;;;;;;5.05;2.38;;;21.80;98.20;;;;;;5124220;27;20036;-74
2022/07/12 07:12:33;;;;;;;6.28;1.55;;;21.80;98.20;;;;;;5124651;27;20092;-74
2022/07/12 07:14:59;;;;;;;4.05;2.03;;;21.80;98.20;;;;;;5122160;27;20112;-73
2022/07/12 07:17:24;;;;;;;3.83;1.73;;;21.80;98.20;;;;;;5125311;27;20051;-74
2022/07/12 07:19:50;;;;;;;5.63;1.98;;;21.80;98.10;;;;;;5123644;27;20054;-74
2022/07/12 07:22:16;;;;;;;8.25;1.60;;;21.90;98.20;;;;;;5122167;27;20506;-73
2022/07/12 07:24:42;;;;;;;8.25;2.83;;;21.90;98.20;;;;;;5124733;27;20047;-74
2022/07/12 07:27:08;;;;;;;7.25;2.25;;;21.90;98.20;;;;;;5125471;27;20040;-73
2022/07/12 07:32:18;;;;;;;5.05;1.67;;;22.00;98.30;;;;;;5125139;27;20513;-73
2022/07/12 07:34:45;;;;;;;4.45;2.03;;;22.00;98.30;;;;;;5122139;27;20456;-74
2022/07/12 07:37:11;;;;;;;5.85;1.92;;;22.00;98.20;;;;;;5123092;27;20039;-73
2022/07/12 07:39:36;;;;;;;5.32;1.58;;;22.10;98.20;;;;;;5122662;27;20039;-73
2022/07/12 07:42:02;;;;;;;5.47;1.80;;;22.10;98.20;;;;;;5124152;27;20459;-73
2022/07/12 07:44:28;;;;;;;5.53;2.10;;;22.10;98.20;;;;;;5123538;27;20035;-73
2022/07/12 07:46:54;;;;;;;5.85;2.40;;;22.10;98.30;;;;;;5123117;27;20047;-73
2022/07/12 07:49:20;;;;;;;10.55;2.28;;;22.20;98.30;;;;;;5122525;27;20604;-73
2022/07/12 07:51:45;;;;;;;3.30;1.90;;;22.20;98.30;;;;;;5122311;27;20055;-73
2022/07/12 07:54:11;;;;;;;3.13;1.60;;;22.20;98.30;;;;;;5123628;27;20130;-73
2022/07/12 07:56:37;;;;;;;4.63;1.67;;;22.30;98.30;;;;;;5124151;27;20521;-74
2022/07/12 07:59:02;;;;;;;3.03;1.60;;;22.30;98.30;;;;;;5123653;27;20047;-74
2022/07/12 08:01:52;;;;;;;3.75;1.60;;;22.40;98.30;;;;;;5104953;27;20063;-74
2022/07/12 08:04:19;;;;;;;11.00;2.53;;;22.40;98.20;;;;;;5124978;27;20042;-74
2022/07/12 08:06:46;;;;;;;2.50;1.50;;;22.40;98.20;;;;;;5122426;27;20043;-74
2022/07/12 08:09:12;;;;;;;5.75;1.73;;;22.50;98.20;;;;;;5121877;27;20047;-74
2022/07/12 08:11:38;;;;;;;3.75;1.67;;;22.50;98.10;;;;;;5122353;27;20032;-73
2022/07/12 08:14:05;;;;;;;5.50;2.25;;;22.50;98.10;;;;;;5121472;27;20039;-73
2022/07/12 08:16:31;;;;;;;3.42;1.75;;;22.60;98.00;;;;;;5122896;27;20031;-77
2022/07/12 08:18:57;;;;;;;3.28;1.70;;;22.60;97.90;;;;;;5120493;27;20653;-76
2022/07/12 08:21:23;;;;;;;7.25;2.00;;;22.60;98.20;;;;;;5122508;27;20047;-77
2022/07/12 08:23:50;;;;;;;2.50;1.60;;;22.70;97.90;;;;;;5123784;27;20036;-77
2022/07/12 08:26:16;;;;;;;3.78;2.25;;;22.70;97.80;;;;;;5125202;27;20477;-77
2022/07/12 08:28:41;;;;;;;4.43;1.80;;;22.80;97.80;;;;;;5123436;27;20701;-77
2022/07/12 08:31:08;;;;;;;4.25;1.50;;;22.90;98.00;;;;;;5124071;27;20039;-76
2022/07/12 08:33:33;;;;;;;4.57;1.90;;;22.90;97.70;;;;;;5125356;27;20075;-76
2022/07/12 08:35:59;;;;;;;3.38;1.60;;;23.00;97.60;;;;;;5122443;27;20035;-76
2022/07/12 08:38:25;;;;;;;3.58;1.67;;;23.00;97.50;;;;;;5122213;27;20154;-77
2022/07/12 08:40:51;;;;;;;6.03;1.80;;;23.10;97.40;;;;;;5122821;27;20047;-76
2022/07/12 08:43:17;;;;;;;5.72;2.55;;;23.20;97.40;;;;;;5123329;27;20060;-77
2022/07/12 08:45:43;;;;;;;2.50;1.30;;;23.30;97.30;;;;;;5122511;27;20039;-77
2022/07/12 08:48:08;;;;;;;4.43;1.50;;;23.40;97.40;;;;;;5120259;27;20604;-77
2022/07/12 08:50:35;;;;;;;1.77;1.20;;;23.50;97.00;;;;;;5121967;27;20039;-77
2022/07/12 08:53:00;;;;;;;1.90;1.38;;;23.60;96.90;;;;;;5124380;27;20071;-76
2022/07/12 08:55:34;;;;;;;3.42;1.98;;;23.70;96.80;;;;;;5124930;27;20510;-77
2022/07/12 08:58:07;;;;;;;7.10;2.20;;;23.70;96.60;;;;;;5123472;27;21324;-77
2022/07/12 09:00:34;;;;;;;5.15;1.65;;;23.90;96.40;;;;;;5124485;27;20035;-77
2022/07/12 09:03:03;;;;;;;5.95;1.80;;;23.90;96.30;;;;;;5123369;27;20512;-77
2022/07/12 09:05:30;;;;;;;5.18;1.65;;;24.00;96.10;;;;;;5124078;27;20046;-77
2022/07/12 09:08:07;;;;;;;2.17;1.45;;;24.00;96.00;;;;;;5124162;27;20109;-77
2022/07/12 09:10:55;;;;;;;3.15;1.40;;;24.00;95.90;;;;;;5120614;27;22236;-77
2022/07/12 09:13:41;;;;;;;5.28;1.83;;;24.10;95.80;;;;;;5124422;27;20051;-77
2022/07/12 09:16:17;;;;;;;1.83;1.02;;;24.10;95.80;;;;;;5126453;27;20134;-77
2022/07/12 09:18:44;;;;;;;3.03;1.45;;;24.10;95.50;;;;;;5125814;27;20046;-77
2022/07/12 09:21:20;;;;;;;2.17;1.05;;;24.10;95.30;;;;;;5142263;27;20043;-76
2022/07/12 09:23:59;;;;;;;1.92;1.00;;;24.10;95.00;;;;;;5126074;27;20056;-77
2022/07/12 09:26:32;;;;;;;2.20;1.20;;;24.10;94.80;;;;;;5125185;27;20042;-77
2022/07/12 09:29:06;;;;;;;3.88;1.70;;;24.10;94.80;;;;;;5127603;27;20100;-77
2022/07/12 09:37:18;;;;;;;4.35;1.27;;;24.20;94.30;;;;;;5129080;27;20047;-76
2022/07/12 09:39:44;;;;;;;2.63;1.20;;;24.10;94.20;;;;;;5124636;27;20044;-76
2022/07/12 09:42:11;;;;;;;3.78;1.35;;;24.10;94.00;;;;;;5126152;27;20046;-77
2022/07/12 09:44:38;;;;;;;2.17;1.48;;;24.10;94.00;;;;;;5122367;27;20422;-77
2022/07/12 09:47:12;;;;;;;7.70;3.45;;;24.10;94.00;;;;;;5125664;27;20063;-77
2022/07/12 09:49:38;;;;;;;8.80;1.48;;;24.10;93.60;;;;;;5126617;27;20035;-77
2022/07/12 09:52:06;;;;;;;3.67;1.80;;;24.20;93.40;;;;;;5125753;27;20068;-77
2022/07/12 09:54:38;;;;;;;1.73;1.25;;;24.10;93.30;;;;;;5125357;27;20040;-77
2022/07/12 09:57:06;;;;;;;1.67;1.17;;;24.20;93.30;;;;;;5125771;27;21272;-76
2022/07/12 09:59:36;;;;;;;3.38;1.70;;;24.10;93.20;;;;;;5127716;27;20031;-76
2022/07/12 10:02:05;;;;;;;2.35;1.17;;;24.10;93.20;;;;;;5126292;27;20044;-76
2022/07/12 10:04:33;;;;;;;3.97;1.48;;;24.20;93.20;;;;;;5127559;27;20032;-77
2022/07/12 10:06:59;;;;;;;1.73;0.90;;;24.20;93.00;;;;;;5125816;27;20529;-77
2022/07/12 10:09:26;;;;;;;1.58;1.02;;;24.20;92.70;;;;;;5127551;27;20043;-77
2022/07/12 10:11:53;;;;;;;1.95;0.95;;;24.30;92.40;;;;;;5125892;27;20484;-78
2022/07/12 10:14:20;;;;;;;2.85;1.00;;;24.30;92.00;;;;;;5126828;27;20078;-79
2022/07/12 10:16:49;;;;;;;2.22;1.10;;;24.30;91.70;;;;;;5127329;27;20049;-76
2022/07/12 10:19:24;;;;;;;1.35;0.90;;;24.30;91.60;;;;;;5127916;27;20172;-77
2022/07/12 10:21:55;;;;;;;2.13;1.17;;;24.40;91.40;;;;;;5127090;27;20055;-77
2022/07/12 10:24:33;;;;;;;1.70;1.60;;;24.30;91.40;;;;;;5123550;27;20494;-76
2022/07/12 10:27:20;;;;;;;2.78;1.17;;;24.30;91.30;;;;;;5126161;27;20074;-77
2022/07/12 10:29:48;;;;;;;2.47;1.00;;;24.40;91.20;;;;;;5125489;27;20040;-76
2022/07/12 10:32:33;;;;;;;0.75;0.70;;;24.30;91.10;;;;;;5125929;27;20039;-77
2022/07/12 10:35:01;;;;;;;0.88;0.80;;;24.40;90.80;;;;;;5126246;27;20039;-77
2022/07/12 10:37:29;;;;;;;3.13;0.93;;;24.40;90.70;;;;;;5125866;27;20040;-76
2022/07/12 10:40:14;;;;;;;2.65;1.17;;;24.50;90.50;;;;;;5124863;27;20042;-77
2022/07/12 10:42:58;;;;;;;1.80;1.50;;;24.50;90.30;;;;;;5126004;27;20039;-76
2022/07/12 10:45:30;;;;;;;1.48;1.10;;;24.50;90.40;;;;;;5125717;27;20048;-77
2022/07/12 10:47:57;;;;;;;2.03;0.88;;;24.50;90.40;;;;;;5125625;27;20067;-76
2022/07/12 10:50:42;;;;;;;2.03;1.40;;;24.50;90.40;;;;;;5110283;27;20035;-77
2022/07/12 10:53:33;;;;;;;1.50;1.00;;;24.50;90.20;;;;;;5125573;27;20192;-76
2022/07/12 10:56:15;;;;;;;2.40;1.60;;;24.50;90.20;;;;;;5127462;27;20074;-77
2022/07/12 10:58:57;;;;;;;1.60;0.82;;;24.60;90.30;;;;;;5123848;27;20043;-77
2022/07/12 11:01:26;;;;;;;1.00;0.70;;;24.60;90.10;;;;;;5125856;27;20035;-77
2022/07/12 11:03:56;;;;;;;1.98;0.85;;;24.70;89.40;;;;;;5127080;27;20046;-77
2022/07/12 11:06:26;;;;;;;2.92;0.90;;;24.70;88.50;;;;;;5126198;27;20201;-77
2022/07/12 11:09:11;;;;;;;1.88;0.70;;;24.80;88.30;;;;;;5125695;27;20044;-76
2022/07/12 11:11:43;;;;;;;1.60;0.80;;;24.80;87.40;;;;;;5127110;27;20605;-76
2022/07/12 11:14:09;;;;;;;3.13;1.10;;;24.80;86.90;;;;;;5125609;27;20051;-77
2022/07/12 11:16:42;;;;;;;3.53;1.00;;;24.90;86.10;;;;;;5124483;27;20075;-76
2022/07/12 11:19:08;;;;;;;3.45;1.02;;;24.90;85.50;;;;;;5123919;27;20563;-76
2022/07/12 11:21:35;;;;;;;4.88;1.17;;;25.00;84.80;;;;;;5127068;27;20093;-76
2022/07/12 11:24:02;;;;;;;1.75;1.38;;;25.20;84.00;;;;;;5124826;27;20039;-76
2022/07/12 11:26:28;;;;;;;1.63;0.88;;;25.20;83.80;;;;;;5127121;27;20066;-76
2022/07/12 11:28:58;;;;;;;3.28;1.30;;;25.20;83.50;;;;;;5127134;27;20890;-77
2022/07/12 11:31:25;;;;;;;1.67;0.95;;;25.30;83.80;;;;;;5125508;27;20066;-76
2022/07/12 11:33:51;;;;;;;1.40;0.82;;;25.30;83.60;;;;;;5125829;27;20050;-77
2022/07/12 11:36:18;;;;;;;1.20;0.88;;;25.40;82.90;;;;;;5122760;27;20106;-76
2022/07/12 11:38:45;;;;;;;4.25;1.15;;;25.40;82.60;;;;;;5125538;27;20036;-76
2022/07/12 11:41:13;;;;;;;0.80;0.68;;;25.30;82.70;;;;;;5123569;27;20047;-76
2022/07/12 11:43:40;;;;;;;1.42;0.80;;;25.30;82.70;;;;;;5124122;27;20169;-77
2022/07/12 11:46:07;;;;;;;3.28;0.90;;;25.30;83.00;;;;;;5126344;27;20610;-77
2022/07/12 11:48:33;;;;;;;3.20;1.25;;;25.20;83.40;;;;;;5125027;27;20517;-77
2022/07/12 11:51:13;;;;;;;5.65;0.95;;;25.30;83.60;;;;;;5125704;27;20857;-76
2022/07/12 11:53:39;;;;;;;6.25;1.13;;;25.30;83.10;;;;;;5123900;27;20118;-77
2022/07/12 11:56:09;;;;;;;7.03;1.50;;;25.40;81.70;;;;;;5126384;27;20047;-77
2022/07/12 11:58:38;;;;;;;2.95;1.02;;;25.50;81.50;;;;;;5125121;27;20078;-77
2022/07/12 12:01:04;;;;;;;2.30;0.90;;;25.50;81.30;;;;;;5127546;27;20031;-77
2022/07/12 12:03:41;;;;;;;1.05;0.88;;;25.50;80.80;;;;;;5125353;27;20048;-77
2022/07/12 12:06:07;;;;;;;2.00;1.25;;;25.50;80.60;;;;;;5125436;27;20047;-76
2022/07/12 12:08:32;;;;;;;1.73;0.93;;;25.60;79.50;;;;;;5125073;27;20421;-76
2022/07/12 12:10:59;;;;;;;3.22;0.50;;;25.60;78.70;;;;;;5125476;27;20108;-77
2022/07/12 12:13:29;;;;;;;2.60;0.95;;;25.60;78.30;;;;;;5127943;27;20047;-76
2022/07/12 12:16:01;;;;;;;2.08;0.73;;;25.60;77.60;;;;;;5126182;27;20054;-77
2022/07/12 12:18:36;;;;;;;9.00;2.17;;;25.60;76.90;;;;;;5125937;27;20055;-77
2022/07/12 12:21:10;;;;;;;2.08;0.70;;;25.70;76.40;;;;;;5124065;27;20529;-77
2022/07/12 12:23:38;;;;;;;3.47;0.85;;;25.70;75.90;;;;;;5127505;27;20536;-77
2022/07/12 12:26:15;;;;;;;1.90;0.90;;;25.70;75.00;;;;;;5125304;27;20055;-77
2022/07/12 12:28:45;;;;;;;0.73;0.50;;;25.70;74.50;;;;;;5126410;27;20047;-77
2022/07/12 12:31:13;;;;;;;2.15;1.13;;;25.70;74.30;;;;;;5125946;27;20043;-77
2022/07/12 12:33:53;;;;;;;1.98;0.65;;;25.80;73.40;;;;;;5124179;27;20043;-77
2022/07/12 12:36:21;;;;;;;1.77;0.73;;;25.80;73.40;;;;;;5123364;27;20046;-76
2022/07/12 12:39:01;;;;;;;1.17;1.08;;;25.80;73.60;;;;;;5126753;27;21000;-77
2022/07/12 12:41:28;;;;;;;1.13;0.50;;;25.80;73.70;;;;;;5130111;27;20035;-77
2022/07/12 12:44:02;;;;;;;3.67;1.50;;;25.80;73.30;;;;;;5133782;27;20112;-77
2022/07/12 12:46:44;;;;;;;2.10;1.27;;;25.90;72.30;;;;;;5131322;27;20036;-77
2022/07/12 12:49:09;;;;;;;2.67;1.38;;;25.90;71.80;;;;;;5128036;27;20078;-77
2022/07/12 12:51:51;;;;;;;1.52;0.80;;;25.90;72.00;;;;;;5125420;27;20119;-77
2022/07/12 12:54:31;;;;;;;1.30;0.90;;;25.90;71.80;;;;;;5124613;27;20042;-77
2022/07/12 12:56:56;;;;;;;3.92;1.58;;;25.90;72.20;;;;;;5126181;27;20112;-77
2022/07/12 12:59:22;;;;;;;3.05;0.80;;;25.90;72.80;;;;;;5124515;27;20330;-76
2022/07/12 13:01:48;;;;;;;2.55;1.25;;;25.90;73.20;;;;;;5125721;27;20101;-76
2022/07/12 13:04:14;;;;;;;1.77;0.90;;;25.90;73.40;;;;;;5125456;27;20149;-76